createdAt,value
2018-08-20T03:38:13.084Z,17.41
2018-08-20T03:41:05.691Z,17.35
2018-08-20T03:43:40.280Z,17.33
2018-08-20T03:47:04.009Z,17.23
2018-08-20T03:49:56.248Z,17.17
2018-08-20T03:52:38.250Z,17.12
2018-08-20T03:55:08.418Z,17.10
2018-08-20T04:01:54.664Z,16.99
2018-08-20T04:04:30.433Z,16.97
2018-08-20T04:07:11.104Z,16.85
2018-08-20T04:22:51.103Z,16.80
2018-08-20T04:25:29.981Z,16.74
2018-08-20T04:28:00.013Z,16.70
2018-08-20T04:33:23.844Z,16.66
2018-08-20T04:35:54.027Z,16.59
2018-08-20T04:54:22.061Z,16.49
2018-08-20T04:57:08.078Z,16.45
2018-08-20T05:08:37.324Z,16.56
2018-08-20T05:17:05.386Z,16.70
2018-08-20T05:19:39.736Z,16.74
2018-08-20T06:44:51.979Z,20.81
2018-08-20T06:53:40.568Z,21.33
2018-08-20T06:56:28.603Z,21.48
2018-08-20T07:20:22.155Z,22.73
2018-08-20T07:59:03.343Z,24.80
2018-08-20T08:01:34.429Z,25.05
2018-08-20T08:10:19.549Z,27.27
2018-08-20T08:12:50.848Z,28.28
2018-08-20T08:33:54.355Z,32.37
2018-08-20T08:36:45.855Z,32.18
2018-08-20T09:00:50.509Z,35.51
2018-08-20T09:03:22.101Z,35.28
2018-08-20T09:05:54.199Z,35.90
2018-08-20T09:11:35.130Z,35.46
2018-08-20T09:14:05.978Z,35.62
2018-08-20T09:18:49.336Z,35.65
2018-08-20T09:21:20.922Z,34.84
2018-08-20T09:23:51.490Z,35.21
2018-08-20T09:29:21.101Z,35.58
2018-08-20T09:31:51.164Z,35.99
2018-08-20T09:34:21.352Z,35.13
2018-08-20T09:36:52.539Z,34.72
2018-08-20T09:39:25.724Z,35.12
2018-08-20T09:41:55.810Z,34.39
2018-08-20T09:44:39.045Z,34.56
2018-08-20T09:47:16.256Z,34.58
2018-08-20T09:49:46.593Z,33.94
2018-08-20T09:52:16.835Z,33.01
2018-08-20T09:55:21.507Z,32.05
2018-08-20T09:57:52.066Z,31.97
2018-08-20T10:05:56.219Z,31.74
2018-08-20T10:08:36.156Z,32.03
2018-08-20T10:11:11.698Z,32.66
2018-08-20T10:13:55.351Z,32.76
2018-08-20T10:16:31.272Z,32.17
2018-08-20T10:19:07.184Z,31.94
2018-08-20T10:21:45.805Z,31.54
2018-08-20T10:24:17.460Z,31.39
2018-08-20T10:26:54.283Z,31.72
2018-08-20T10:29:26.035Z,31.71
2018-08-20T10:31:58.387Z,31.09
2018-08-20T10:38:36.384Z,30.43
2018-08-20T10:41:21.715Z,30.28
2018-08-20T10:43:53.067Z,29.93
2018-08-20T10:46:28.462Z,29.83
2018-08-20T10:48:59.031Z,29.81
2018-08-20T10:51:28.996Z,29.90
2018-08-20T10:53:59.187Z,29.72
2018-08-20T10:56:39.939Z,29.51
2018-08-20T10:59:09.852Z,29.41
2018-08-20T11:01:40.415Z,29.41
2018-08-20T11:04:10.769Z,29.58
2018-08-20T11:07:56.999Z,29.82
2018-08-20T11:10:26.731Z,29.72
2018-08-20T11:12:56.461Z,29.78
2018-08-20T11:15:33.953Z,29.92
2018-08-20T11:18:03.591Z,29.73
2018-08-20T11:20:33.400Z,29.70
2018-08-20T11:23:03.265Z,29.87
2018-08-20T11:31:24.917Z,29.95
2018-08-20T11:46:48.209Z,30.49
2018-08-20T12:13:12.462Z,29.74
2018-08-20T12:15:42.833Z,29.61
2018-08-20T12:18:15.110Z,29.80
2018-08-20T12:20:46.864Z,29.91
2018-08-20T12:23:22.758Z,29.84
2018-08-20T12:25:52.850Z,29.73
2018-08-20T12:28:25.408Z,29.94
2018-08-20T12:30:57.074Z,29.89
2018-08-20T12:33:27.815Z,30.02
2018-08-20T12:36:03.633Z,30.10
2018-08-20T12:38:33.437Z,30.09
2018-08-20T12:41:04.859Z,30.18
2018-08-20T12:43:39.783Z,30.11
2018-08-20T12:49:11.150Z,30.82
2018-08-20T12:51:46.520Z,31.06
2018-08-20T12:54:16.731Z,31.30
2018-08-20T12:56:46.724Z,31.18
2018-08-20T12:59:16.941Z,30.70
2018-08-20T13:01:47.002Z,30.68
2018-08-20T13:04:17.105Z,30.67
2018-08-20T13:09:50.514Z,30.42
2018-08-20T13:15:26.906Z,29.98
2018-08-20T13:20:54.744Z,30.69
2018-08-20T13:23:28.008Z,30.44
2018-08-20T13:25:57.837Z,30.78
2018-08-20T13:28:28.043Z,30.79
2018-08-20T13:31:01.117Z,30.67
2018-08-20T13:33:31.155Z,30.66
2018-08-20T13:36:23.261Z,30.65
2018-08-20T13:38:55.608Z,31.36
2018-08-20T13:41:26.731Z,33.19
2018-08-20T13:44:11.867Z,35.23
2018-08-20T13:46:43.480Z,35.30
2018-08-20T13:52:17.272Z,37.69
2018-08-20T13:54:48.140Z,37.91
2018-08-20T13:57:20.011Z,35.43
2018-08-20T13:59:53.402Z,37.48
2018-08-20T14:08:41.125Z,32.79
2018-08-20T14:14:27.834Z,33.05
2018-08-20T14:17:18.407Z,35.51
2018-08-20T14:19:48.456Z,38.30
2018-08-20T14:25:01.906Z,40.52
2018-08-20T14:27:32.857Z,41.08
2018-08-20T14:30:03.007Z,40.74
2018-08-20T14:36:36.441Z,40.24
2018-08-20T14:39:08.074Z,40.42
2018-08-20T14:41:39.715Z,40.87
2018-08-20T14:44:09.326Z,42.04
2018-08-20T14:46:39.939Z,37.31
2018-08-20T14:49:09.817Z,35.42
2018-08-20T14:51:39.512Z,36.89
2018-08-20T14:54:09.683Z,37.16
2018-08-20T14:56:46.118Z,37.55
2018-08-20T14:59:16.179Z,38.10
2018-08-20T15:01:45.959Z,37.39
2018-08-20T15:04:16.789Z,35.48
2018-08-20T15:06:57.623Z,34.83
2018-08-20T15:09:28.459Z,36.04
2018-08-20T15:11:58.862Z,35.60
2018-08-20T15:14:29.309Z,34.15
2018-08-20T15:16:59.367Z,33.00
2018-08-20T15:19:29.529Z,33.92
2018-08-20T15:21:59.277Z,36.08
2018-08-20T15:24:29.835Z,36.71
2018-08-20T15:27:02.881Z,36.51
2018-08-20T15:29:32.394Z,37.41
2018-08-20T15:32:02.074Z,37.44
2018-08-20T15:34:39.299Z,37.52
2018-08-20T15:37:08.858Z,37.32
2018-08-20T15:39:44.969Z,37.66
2018-08-20T15:42:14.594Z,38.01
2018-08-20T15:44:44.631Z,38.30
2018-08-20T15:47:14.501Z,38.93
2018-08-20T15:49:46.602Z,38.65
2018-08-20T15:52:16.496Z,38.29
2018-08-20T15:54:46.138Z,38.29
2018-08-20T15:57:19.416Z,38.50
2018-08-20T15:59:53.411Z,38.16
2018-08-20T16:02:22.994Z,37.64
2018-08-20T16:04:55.177Z,36.77
2018-08-20T16:07:25.126Z,36.81
2018-08-20T16:09:54.957Z,37.02
2018-08-20T16:12:25.040Z,36.73
2018-08-20T16:14:54.643Z,36.65
2018-08-20T16:17:24.662Z,36.27
2018-08-20T16:19:55.055Z,36.29
2018-08-20T16:22:25.974Z,35.10
2018-08-20T16:24:58.930Z,32.81
2018-08-20T16:27:32.333Z,31.39
2018-08-20T16:30:02.499Z,30.20
2018-08-20T16:32:32.012Z,30.02
2018-08-20T16:35:02.872Z,29.51
2018-08-20T16:37:36.078Z,29.40
2018-08-20T16:40:07.690Z,29.07
2018-08-20T16:43:02.928Z,28.97
2018-08-20T16:45:33.106Z,28.73
2018-08-20T16:48:06.316Z,28.49
2018-08-20T16:50:36.455Z,28.38
2018-08-20T16:53:06.604Z,28.39
2018-08-20T16:55:36.245Z,28.20
2018-08-20T16:58:07.362Z,28.07
2018-08-20T17:00:36.972Z,28.01
2018-08-20T17:03:24.849Z,27.99
2018-08-20T17:05:57.065Z,27.89
2018-08-20T17:08:40.255Z,27.84
2018-08-20T17:11:11.146Z,27.77
2018-08-20T17:13:41.932Z,27.60
2018-08-20T17:16:14.045Z,27.57
2018-08-20T17:18:44.434Z,27.53
2018-08-20T17:21:14.391Z,27.53
2018-08-20T17:23:45.000Z,27.34
2018-08-20T17:26:30.716Z,27.24
2018-08-20T17:29:08.443Z,27.18
2018-08-20T17:31:39.411Z,26.94
2018-08-20T17:34:53.217Z,26.85
2018-08-20T17:37:23.558Z,26.74
2018-08-20T17:40:06.669Z,26.72
2018-08-20T17:42:38.595Z,26.67
2018-08-20T17:45:11.031Z,26.73
2018-08-20T17:47:42.082Z,26.65
2018-08-20T17:53:05.146Z,26.60
2018-08-20T17:55:37.723Z,26.67
2018-08-20T17:58:23.380Z,26.59
2018-08-20T18:00:54.552Z,26.41
2018-08-20T18:03:31.216Z,26.35
2018-08-20T18:06:04.336Z,26.23
2018-08-20T18:08:36.310Z,26.10
2018-08-20T18:11:08.158Z,26.03
2018-08-20T18:13:50.281Z,25.95
2018-08-20T18:19:15.558Z,25.61
2018-08-20T18:21:46.422Z,25.51
2018-08-20T18:24:18.468Z,25.47
2018-08-20T18:26:57.636Z,25.25
2018-08-20T18:29:28.817Z,25.12
2018-08-20T18:32:01.917Z,25.27
2018-08-20T18:34:34.409Z,25.03
2018-08-20T18:37:05.326Z,24.99
2018-08-20T18:42:32.236Z,25.02
2018-08-20T18:45:03.444Z,24.76
2018-08-20T18:47:47.315Z,24.57
2018-08-20T18:50:23.899Z,24.42
2018-08-20T18:53:00.339Z,24.34
2018-08-20T18:55:33.226Z,24.31
2018-08-20T18:58:05.113Z,24.17
2018-08-20T19:03:14.398Z,24.12
2018-08-20T19:05:50.362Z,23.98
2018-08-20T19:08:30.380Z,23.88
2018-08-20T19:11:06.879Z,23.86
2018-08-20T19:13:38.296Z,23.73
2018-08-20T19:19:51.073Z,23.50
2018-08-20T19:22:29.050Z,23.39
2018-08-20T19:25:04.148Z,23.29
2018-08-20T19:27:36.109Z,23.16
2018-08-20T19:30:16.944Z,23.05
2018-08-20T19:33:01.742Z,23.04
2018-08-20T19:35:32.426Z,22.94
2018-08-20T19:38:03.004Z,22.84
2018-08-20T19:40:35.819Z,22.82
2018-08-20T19:43:08.904Z,22.69
2018-08-20T19:48:54.523Z,22.60
2018-08-20T19:51:30.046Z,22.51
2018-08-20T19:59:05.368Z,22.36
2018-08-20T20:01:35.959Z,22.32
2018-08-20T20:07:16.026Z,22.24
2018-08-20T20:12:58.069Z,22.09
2018-08-20T20:15:42.668Z,22.01
2018-08-20T20:18:13.172Z,21.97
2018-08-20T20:21:03.554Z,21.93
2018-08-20T20:23:35.110Z,21.90
2018-08-20T20:41:31.287Z,21.64
2018-08-20T20:46:58.589Z,21.53
2018-08-20T20:49:40.596Z,21.48
2018-08-20T20:52:30.668Z,21.40
2018-08-20T20:55:14.631Z,21.34
2018-08-20T21:04:02.669Z,21.26
2018-08-20T21:09:53.453Z,21.08
2018-08-20T21:12:34.932Z,21.11
2018-08-20T21:38:41.025Z,20.69
2018-08-20T21:41:24.912Z,20.56
2018-08-20T21:49:01.630Z,20.56
2018-08-20T21:51:46.247Z,20.32
2018-08-20T22:09:20.250Z,19.97
2018-08-20T22:11:56.806Z,19.97
2018-08-20T22:20:51.412Z,19.85
2018-08-20T22:57:30.813Z,19.50
2018-08-20T23:00:33.653Z,19.47
2018-08-20T23:03:08.202Z,19.45
2018-08-20T23:05:43.681Z,19.37
2018-08-20T23:08:18.929Z,19.40
2018-08-20T23:10:53.173Z,19.36
2018-08-20T23:13:27.664Z,19.29
2018-08-20T23:16:04.135Z,19.31
2018-08-20T23:18:40.362Z,19.31
2018-08-20T23:21:14.245Z,19.24
2018-08-20T23:23:44.661Z,19.20
2018-08-20T23:26:17.916Z,19.21
2018-08-20T23:29:09.191Z,19.18
2018-08-20T23:31:50.702Z,19.08
2018-08-20T23:34:21.798Z,19.05
2018-08-20T23:36:53.379Z,19.04
2018-08-20T23:39:24.342Z,18.95
2018-08-20T23:41:54.743Z,18.88
2018-08-20T23:44:25.931Z,18.80
2018-08-20T23:47:44.742Z,18.74
2018-08-20T23:50:15.888Z,18.70
2018-08-20T23:52:46.660Z,18.72
2018-08-20T23:55:16.733Z,18.62
2018-08-20T23:57:47.564Z,18.57
